Astoeingen — LG8191 — position and weather

sailwx.info

Track history (hours):
 
Tides and Currents Weather Stations Pressure Air Temp Water Temp Dewpoint Dewpoint Depression Visibility Wind Speed Wind Dir Waves Ship Positions

Astoeingen

Last reported at 2018-Jun-18 21:00 UTC. Time now 2018-Jun-18 21:06 UTC.
Position N 68°55' E 017°07'.

Length 14 m.

Type: Other ship. MMSI: 257634800.

Date/timePositionNaut miles runAvg speedWind from/ knotsBaromVisibWave heightAir tempDewpointWater temp
2018-Jun-18 21:00N 68°55' E 017°07'0 0.0
2018-Jun-18 20:30N 68°55' E 017°07'0 0.0
2018-Jun-18 20:00N 68°55' E 017°07'0 0.0
2018-Jun-18 19:29N 68°55' E 017°07'0 0.0
2018-Jun-18 19:00N 68°55' E 017°07'0 0.0
2018-Jun-18 18:30N 68°55' E 017°07'0 0.0
2018-Jun-18 18:00N 68°55' E 017°07'0 0.0
2018-Jun-18 17:30N 68°55' E 017°07'0 0.0
2018-Jun-18 17:00N 68°55' E 017°07'0 0.0
2018-Jun-18 16:28N 68°55' E 017°07'0 0.0
2018-Jun-18 15:58N 68°55' E 017°07'0 0.0
2018-Jun-18 15:27N 68°55' E 017°07'0 0.0
2018-Jun-18 14:59N 68°55' E 017°07'0 0.0
2018-Jun-18 14:30N 68°55' E 017°07'0 0.0
2018-Jun-18 14:00N 68°55' E 017°07'0 0.0
2018-Jun-18 12:31N 68°55' E 017°07'0 0.0
2018-Jun-18 12:16N 68°55' E 017°07'0 0.0
2018-Jun-18 11:58N 68°55' E 017°07'1 0.1
2018-Jun-18 06:19N 68°55' E 017°06'1 2.2
2018-Jun-18 06:00N 68°56' E 017°07'0 0.0
2018-Jun-18 05:30N 68°56' E 017°07'0 0.0
2018-Jun-18 05:00N 68°55' E 017°07'0 0.0
2018-Jun-18 04:30N 68°55' E 017°07'0 0.0
2018-Jun-18 04:00N 68°55' E 017°07'0 0.0
2018-Jun-18 03:30N 68°55' E 017°07'0 0.0
2018-Jun-18 03:00N 68°55' E 017°07'0 0.0
2018-Jun-18 02:30N 68°55' E 017°07'0 0.0
2018-Jun-18 01:58N 68°55' E 017°07'0 0.0
2018-Jun-18 01:30N 68°55' E 017°07'0 0.0
2018-Jun-18 01:00N 68°55' E 017°07'0 0.0
2018-Jun-18 00:30N 68°55' E 017°07'0 0.0
2018-Jun-18 00:00N 68°55' E 017°07'0 0.0
2018-Jun-17 23:30N 68°55' E 017°07'0 0.0
2018-Jun-17 23:00N 68°55' E 017°07'0 0.0
2018-Jun-17 22:30N 68°55' E 017°07'0 0.0
2018-Jun-17 22:00N 68°55' E 017°07'0 0.0
2018-Jun-17 21:30N 68°55' E 017°07'0 0.0
2018-Jun-17 20:58N 68°55' E 017°07'0 0.0
2018-Jun-17 20:29N 68°55' E 017°07'0 0.0
2018-Jun-17 19:59N 68°55' E 017°07'0 0.0
2018-Jun-17 19:30N 68°55' E 017°07'0 0.0
2018-Jun-17 19:00N 68°55' E 017°07'0 0.0
2018-Jun-17 18:30N 68°55' E 017°07'0 0.0
2018-Jun-17 17:59N 68°55' E 017°07'0 0.0
2018-Jun-17 17:30N 68°55' E 017°07'0 0.0
2018-Jun-17 17:00N 68°55' E 017°07'0 0.7
2018-Jun-17 16:30N 68°55' E 017°08'1 0.3
2018-Jun-17 12:02N 68°54' E 017°05'0 8.1
2018-Jun-17 12:00N 68°55' E 017°05'1 2.3
2018-Jun-17 11:30N 68°55' E 017°08'3 0.9
2018-Jun-17 08:22N 68°53' E 017°03'2 0.9
2018-Jun-17 05:32N 68°55' E 016°59'0 8.3
2018-Jun-17 05:30N 68°55' E 016°60'3 5.4
2018-Jun-17 05:00N 68°55' E 017°07'0 0.0
2018-Jun-17 04:30N 68°55' E 017°07'0 0.0
2018-Jun-17 04:00N 68°55' E 017°07'0 0.0
2018-Jun-17 03:30N 68°55' E 017°07'0 0.0
2018-Jun-17 03:00N 68°55' E 017°07'0 0.0
2018-Jun-17 02:30N 68°55' E 017°07'0 0.0
2018-Jun-17 02:00N 68°55' E 017°07'0 0.0
2018-Jun-17 01:30N 68°55' E 017°07'0 0.0
2018-Jun-17 01:00N 68°55' E 017°07'0 0.0
2018-Jun-17 00:30N 68°55' E 017°07'0 0.0
2018-Jun-17 00:00N 68°55' E 017°07'0 0.0
2018-Jun-16 23:30N 68°55' E 017°07'0 0.0
2018-Jun-16 23:00N 68°55' E 017°07'0 0.0
2018-Jun-16 22:30N 68°55' E 017°07'0 0.0
2018-Jun-16 22:00N 68°55' E 017°07'0 0.0
2018-Jun-16 21:30N 68°55' E 017°07'0 0.0
2018-Jun-16 21:00N 68°55' E 017°07'0 0.0
2018-Jun-16 20:30N 68°55' E 017°07'0 0.0
2018-Jun-16 20:00N 68°55' E 017°07'0 0.0
2018-Jun-16 19:30N 68°55' E 017°07'0 0.0
2018-Jun-16 19:00N 68°55' E 017°07'0 0.0
2018-Jun-16 18:30N 68°55' E 017°07'0 0.0
2018-Jun-16 17:59N 68°55' E 017°07'0 0.0
2018-Jun-16 17:30N 68°55' E 017°07'0 0.0
2018-Jun-16 17:00N 68°55' E 017°07'0 0.0
2018-Jun-16 16:29N 68°55' E 017°07'0 0.0
2018-Jun-16 16:00N 68°55' E 017°07'0 0.0
2018-Jun-16 15:30N 68°55' E 017°07'0 0.0
2018-Jun-16 14:59N 68°55' E 017°07'0 0.0
2018-Jun-16 14:30N 68°55' E 017°07'0 0.0
2018-Jun-16 13:59N 68°55' E 017°07'0 0.0
2018-Jun-16 13:30N 68°55' E 017°07'0 0.0
2018-Jun-16 13:00N 68°55' E 017°07'0 0.0
2018-Jun-16 12:29N 68°55' E 017°07'0 0.0
2018-Jun-16 12:00N 68°55' E 017°07'0 0.0
2018-Jun-16 11:30N 68°55' E 017°07'0 0.0
2018-Jun-16 11:00N 68°55' E 017°07'0 0.0
2018-Jun-16 10:30N 68°55' E 017°07'0 0.0
2018-Jun-16 10:00N 68°55' E 017°07'0 0.0
2018-Jun-16 09:30N 68°55' E 017°07'0 0.0
2018-Jun-16 08:59N 68°55' E 017°07'0 0.0
2018-Jun-16 08:30N 68°55' E 017°07'0 0.0
2018-Jun-16 08:00N 68°55' E 017°07'0 0.0
2018-Jun-16 07:30N 68°55' E 017°07'0 0.0
2018-Jun-16 06:59N 68°55' E 017°07'0 0.0
2018-Jun-16 06:30N 68°55' E 017°07'0 0.0
2018-Jun-16 06:00N 68°55' E 017°07'0 0.0
2018-Jun-16 05:30N 68°55' E 017°07'0 0.0
2018-Jun-16 05:00N 68°55' E 017°07'0 0.0
2018-Jun-16 04:30N 68°55' E 017°07'0 0.0
2018-Jun-16 03:59N 68°55' E 017°07'0 0.0
2018-Jun-16 03:30N 68°55' E 017°07'0 0.0
2018-Jun-16 03:00N 68°55' E 017°07'0 0.0
2018-Jun-16 02:30N 68°55' E 017°07'0 0.0
2018-Jun-16 02:00N 68°55' E 017°07'0 0.0
2018-Jun-16 01:30N 68°55' E 017°07'0 0.0
2018-Jun-16 01:00N 68°55' E 017°07'0 0.0
2018-Jun-16 00:30N 68°55' E 017°07'0 0.0
2018-Jun-16 00:00N 68°55' E 017°07'0 0.0
2018-Jun-15 23:28N 68°55' E 017°07'0 0.0
2018-Jun-15 22:59N 68°55' E 017°07'0 0.0
2018-Jun-15 22:30N 68°55' E 017°07'0 0.0
2018-Jun-15 21:59N 68°55' E 017°07'0 0.0
2018-Jun-15 21:27N 68°55' E 017°07'0 0.0
2018-Jun-15 21:00N 68°55' E 017°07'0 0.0
2018-Jun-15 20:30N 68°55' E 017°07'0 0.0
2018-Jun-15 20:00N 68°55' E 017°07'0 0.0
2018-Jun-15 19:30N 68°55' E 017°07'0 0.0
2018-Jun-15 18:50N 68°55' E 017°07'0 0.0
2018-Jun-15 18:29N 68°55' E 017°07'0 0.0
2018-Jun-15 17:59N 68°55' E 017°07'0 0.0
2018-Jun-15 17:29N 68°55' E 017°07'0 0.0
2018-Jun-15 17:00N 68°55' E 017°07'0 0.0
2018-Jun-15 16:30N 68°55' E 017°07'0 0.0
2018-Jun-15 16:00N 68°55' E 017°07'0 0.0
2018-Jun-15 15:30N 68°55' E 017°07'0 0.0
2018-Jun-15 15:00N 68°55' E 017°07'0 0.0
2018-Jun-15 14:30N 68°55' E 017°07'0 0.0
2018-Jun-15 14:00N 68°55' E 017°07'0 0.0
2018-Jun-15 13:29N 68°55' E 017°07'0 0.0
2018-Jun-15 13:00N 68°55' E 017°07'0 0.0
2018-Jun-15 12:28N 68°55' E 017°07'0 0.0
2018-Jun-15 12:00N 68°55' E 017°07'0 0.0
2018-Jun-15 11:25N 68°55' E 017°07'0 0.0
2018-Jun-15 10:59N 68°55' E 017°07'4 6.4
2018-Jun-15 10:18N 68°51' E 017°04'2 5.5
2018-Jun-15 10:00N 68°53' E 017°02'610.3
2018-Jun-15 09:28N 68°49' E 016°51'7 1.8
2018-Jun-15 05:39N 68°54' E 017°02'2 8.2
2018-Jun-15 05:27N 68°55' E 017°06'1 1.9
2018-Jun-15 05:00N 68°55' E 017°07'0 0.0
2018-Jun-15 04:29N 68°55' E 017°07'0 0.0
2018-Jun-15 03:57N 68°55' E 017°07'0 0.0
2018-Jun-15 03:28N 68°55' E 017°07'0 0.0
2018-Jun-15 03:00N 68°55' E 017°07'0 0.0
2018-Jun-15 02:30N 68°55' E 017°07'0 0.0
2018-Jun-15 02:00N 68°55' E 017°07'0 0.0
2018-Jun-15 01:29N 68°55' E 017°07'0 0.0
2018-Jun-15 01:00N 68°55' E 017°07'0 0.0
2018-Jun-15 00:30N 68°55' E 017°07'0 0.0
2018-Jun-15 00:00N 68°55' E 017°07'0 0.0
2018-Jun-14 23:30N 68°55' E 017°07'0 0.0
2018-Jun-14 23:00N 68°55' E 017°07'0 0.0
2018-Jun-14 22:30N 68°55' E 017°07'0 0.0
2018-Jun-14 22:00N 68°55' E 017°07'0 0.0
2018-Jun-14 21:30N 68°55' E 017°07'0 0.0
2018-Jun-14 21:00N 68°55' E 017°07'0 0.0
2018-Jun-14 20:30N 68°55' E 017°07'0 0.0
2018-Jun-14 20:00N 68°55' E 017°07'0 0.0
2018-Jun-14 19:30N 68°55' E 017°07'0 0.0
2018-Jun-14 19:00N 68°55' E 017°07'0 0.0
2018-Jun-14 18:30N 68°55' E 017°07'0 0.0
2018-Jun-14 18:00N 68°55' E 017°07'0 0.0
2018-Jun-14 17:30N 68°55' E 017°07'0 0.0
2018-Jun-14 17:00N 68°55' E 017°07'0 0.0
2018-Jun-14 16:30N 68°55' E 017°07'0 0.0
2018-Jun-14 15:58N 68°55' E 017°07'0 0.0
2018-Jun-14 15:29N 68°55' E 017°07'0 0.0
2018-Jun-14 15:00N 68°55' E 017°07'0 0.0
2018-Jun-14 14:28N 68°55' E 017°07'0 0.0
2018-Jun-14 14:00N 68°55' E 017°07'12 2.4
2018-Jun-14 08:58N 68°60' E 016°36'5 1.8
2018-Jun-14 06:12N 68°59' E 016°49'5 9.2
2018-Jun-14 05:42N 68°57' E 017°01'2 9.1
2018-Jun-14 05:29N 68°56' E 017°06'1 1.6
2018-Jun-14 05:00N 68°55' E 017°07'0 0.0
2018-Jun-14 04:30N 68°55' E 017°07'0 0.0
2018-Jun-14 04:00N 68°55' E 017°07'0 0.0
2018-Jun-14 03:30N 68°55' E 017°07'0 0.0
2018-Jun-14 03:00N 68°55' E 017°07'0 0.0
2018-Jun-14 02:30N 68°55' E 017°07'0 0.0
2018-Jun-14 02:00N 68°55' E 017°07'0 0.0
2018-Jun-14 01:29N 68°55' E 017°07'0 0.0
2018-Jun-14 01:00N 68°55' E 017°07'0 0.0
2018-Jun-14 00:30N 68°55' E 017°07'0 0.0
2018-Jun-14 00:00N 68°55' E 017°07'0 0.0
2018-Jun-13 23:30N 68°55' E 017°07'0 0.0
2018-Jun-13 23:00N 68°55' E 017°07'0 0.0
2018-Jun-13 22:30N 68°55' E 017°07'0 0.0
2018-Jun-13 22:00N 68°55' E 017°07'0 0.0
2018-Jun-13 21:30N 68°55' E 017°07'0 0.0
2018-Jun-13 21:00N 68°55' E 017°07'0 0.0
2018-Jun-13 20:30N 68°55' E 017°07'0 0.0
2018-Jun-13 20:00N 68°55' E 017°07'0 0.0
2018-Jun-13 19:30N 68°55' E 017°07'0 0.0
2018-Jun-13 19:00N 68°55' E 017°07'0 0.0
2018-Jun-13 18:30N 68°55' E 017°07'0 0.0
2018-Jun-13 18:00N 68°55' E 017°07'0 0.0
2018-Jun-13 17:30N 68°55' E 017°07'3 4.2
2018-Jun-13 16:50N 68°53' E 017°05'2 1.5
2018-Jun-13 15:43N 68°51' E 017°04'0 0.0
2018-Jun-13 14:55N 68°51' E 017°04'4 0.4
2018-Jun-13 06:25N 68°55' E 017°05'3 0.2
2018-Jun-12 14:38N 68°52' E 017°03'  
2018-Jun-10 09:46N 68°56' E 017°06'1 3.7
2018-Jun-10 09:29N 68°55' E 017°09'0 0.0
2018-Jun-09 16:41N 68°55' E 017°07'  
Track history (hours):
 
Tides and Currents Weather Stations Pressure Air Temp Water Temp Dewpoint Dewpoint Depression Visibility Wind Speed Wind Dir Waves Ship Positions

Astoeingen

Last reported at 2018-Jun-18 21:00 UTC. Time now 2018-Jun-18 21:06 UTC.
Position N 68°55' E 017°07'.

Length 14 m.

Type: Other ship. MMSI: 257634800.

Date/timePositionNaut miles runAvg speedWind from/ knotsBaromVisibWave heightAir tempDewpointWater temp
2018-Jun-18 21:00N 68°55' E 017°07'0 0.0
2018-Jun-18 20:30N 68°55' E 017°07'0 0.0
2018-Jun-18 20:00N 68°55' E 017°07'0 0.0
2018-Jun-18 19:29N 68°55' E 017°07'0 0.0
2018-Jun-18 19:00N 68°55' E 017°07'0 0.0
2018-Jun-18 18:30N 68°55' E 017°07'0 0.0
2018-Jun-18 18:00N 68°55' E 017°07'0 0.0
2018-Jun-18 17:30N 68°55' E 017°07'0 0.0
2018-Jun-18 17:00N 68°55' E 017°07'0 0.0
2018-Jun-18 16:28N 68°55' E 017°07'0 0.0
2018-Jun-18 15:58N 68°55' E 017°07'0 0.0
2018-Jun-18 15:27N 68°55' E 017°07'0 0.0
2018-Jun-18 14:59N 68°55' E 017°07'0 0.0
2018-Jun-18 14:30N 68°55' E 017°07'0 0.0
2018-Jun-18 14:00N 68°55' E 017°07'0 0.0
2018-Jun-18 12:31N 68°55' E 017°07'0 0.0
2018-Jun-18 12:16N 68°55' E 017°07'0 0.0
2018-Jun-18 11:58N 68°55' E 017°07'1 0.1
2018-Jun-18 06:19N 68°55' E 017°06'1 2.2
2018-Jun-18 06:00N 68°56' E 017°07'0 0.0
2018-Jun-18 05:30N 68°56' E 017°07'0 0.0
2018-Jun-18 05:00N 68°55' E 017°07'0 0.0
2018-Jun-18 04:30N 68°55' E 017°07'0 0.0
2018-Jun-18 04:00N 68°55' E 017°07'0 0.0
2018-Jun-18 03:30N 68°55' E 017°07'0 0.0
2018-Jun-18 03:00N 68°55' E 017°07'0 0.0
2018-Jun-18 02:30N 68°55' E 017°07'0 0.0
2018-Jun-18 01:58N 68°55' E 017°07'0 0.0
2018-Jun-18 01:30N 68°55' E 017°07'0 0.0
2018-Jun-18 01:00N 68°55' E 017°07'0 0.0
2018-Jun-18 00:30N 68°55' E 017°07'0 0.0
2018-Jun-18 00:00N 68°55' E 017°07'0 0.0
2018-Jun-17 23:30N 68°55' E 017°07'0 0.0
2018-Jun-17 23:00N 68°55' E 017°07'0 0.0
2018-Jun-17 22:30N 68°55' E 017°07'0 0.0
2018-Jun-17 22:00N 68°55' E 017°07'0 0.0
2018-Jun-17 21:30N 68°55' E 017°07'0 0.0
2018-Jun-17 20:58N 68°55' E 017°07'0 0.0
2018-Jun-17 20:29N 68°55' E 017°07'0 0.0
2018-Jun-17 19:59N 68°55' E 017°07'0 0.0
2018-Jun-17 19:30N 68°55' E 017°07'0 0.0
2018-Jun-17 19:00N 68°55' E 017°07'0 0.0
2018-Jun-17 18:30N 68°55' E 017°07'0 0.0
2018-Jun-17 17:59N 68°55' E 017°07'0 0.0
2018-Jun-17 17:30N 68°55' E 017°07'0 0.0
2018-Jun-17 17:00N 68°55' E 017°07'0 0.7
2018-Jun-17 16:30N 68°55' E 017°08'1 0.3
2018-Jun-17 12:02N 68°54' E 017°05'0 8.1
2018-Jun-17 12:00N 68°55' E 017°05'1 2.3
2018-Jun-17 11:30N 68°55' E 017°08'3 0.9
2018-Jun-17 08:22N 68°53' E 017°03'2 0.9
2018-Jun-17 05:32N 68°55' E 016°59'0 8.3
2018-Jun-17 05:30N 68°55' E 016°60'3 5.4
2018-Jun-17 05:00N 68°55' E 017°07'0 0.0
2018-Jun-17 04:30N 68°55' E 017°07'0 0.0
2018-Jun-17 04:00N 68°55' E 017°07'0 0.0
2018-Jun-17 03:30N 68°55' E 017°07'0 0.0
2018-Jun-17 03:00N 68°55' E 017°07'0 0.0
2018-Jun-17 02:30N 68°55' E 017°07'0 0.0
2018-Jun-17 02:00N 68°55' E 017°07'0 0.0
2018-Jun-17 01:30N 68°55' E 017°07'0 0.0
2018-Jun-17 01:00N 68°55' E 017°07'0 0.0
2018-Jun-17 00:30N 68°55' E 017°07'0 0.0
2018-Jun-17 00:00N 68°55' E 017°07'0 0.0
2018-Jun-16 23:30N 68°55' E 017°07'0 0.0
2018-Jun-16 23:00N 68°55' E 017°07'0 0.0
2018-Jun-16 22:30N 68°55' E 017°07'0 0.0
2018-Jun-16 22:00N 68°55' E 017°07'0 0.0
2018-Jun-16 21:30N 68°55' E 017°07'0 0.0
2018-Jun-16 21:00N 68°55' E 017°07'0 0.0
2018-Jun-16 20:30N 68°55' E 017°07'0 0.0
2018-Jun-16 20:00N 68°55' E 017°07'0 0.0
2018-Jun-16 19:30N 68°55' E 017°07'0 0.0
2018-Jun-16 19:00N 68°55' E 017°07'0 0.0
2018-Jun-16 18:30N 68°55' E 017°07'0 0.0
2018-Jun-16 17:59N 68°55' E 017°07'0 0.0
2018-Jun-16 17:30N 68°55' E 017°07'0 0.0
2018-Jun-16 17:00N 68°55' E 017°07'0 0.0
2018-Jun-16 16:29N 68°55' E 017°07'0 0.0
2018-Jun-16 16:00N 68°55' E 017°07'0 0.0
2018-Jun-16 15:30N 68°55' E 017°07'0 0.0
2018-Jun-16 14:59N 68°55' E 017°07'0 0.0
2018-Jun-16 14:30N 68°55' E 017°07'0 0.0
2018-Jun-16 13:59N 68°55' E 017°07'0 0.0
2018-Jun-16 13:30N 68°55' E 017°07'0 0.0
2018-Jun-16 13:00N 68°55' E 017°07'0 0.0
2018-Jun-16 12:29N 68°55' E 017°07'0 0.0
2018-Jun-16 12:00N 68°55' E 017°07'0 0.0
2018-Jun-16 11:30N 68°55' E 017°07'0 0.0
2018-Jun-16 11:00N 68°55' E 017°07'0 0.0
2018-Jun-16 10:30N 68°55' E 017°07'0 0.0
2018-Jun-16 10:00N 68°55' E 017°07'0 0.0
2018-Jun-16 09:30N 68°55' E 017°07'0 0.0
2018-Jun-16 08:59N 68°55' E 017°07'0 0.0
2018-Jun-16 08:30N 68°55' E 017°07'0 0.0
2018-Jun-16 08:00N 68°55' E 017°07'0 0.0
2018-Jun-16 07:30N 68°55' E 017°07'0 0.0
2018-Jun-16 06:59N 68°55' E 017°07'0 0.0
2018-Jun-16 06:30N 68°55' E 017°07'0 0.0
2018-Jun-16 06:00N 68°55' E 017°07'0 0.0
2018-Jun-16 05:30N 68°55' E 017°07'0 0.0
2018-Jun-16 05:00N 68°55' E 017°07'0 0.0
2018-Jun-16 04:30N 68°55' E 017°07'0 0.0
2018-Jun-16 03:59N 68°55' E 017°07'0 0.0
2018-Jun-16 03:30N 68°55' E 017°07'0 0.0
2018-Jun-16 03:00N 68°55' E 017°07'0 0.0
2018-Jun-16 02:30N 68°55' E 017°07'0 0.0
2018-Jun-16 02:00N 68°55' E 017°07'0 0.0
2018-Jun-16 01:30N 68°55' E 017°07'0 0.0
2018-Jun-16 01:00N 68°55' E 017°07'0 0.0
2018-Jun-16 00:30N 68°55' E 017°07'0 0.0
2018-Jun-16 00:00N 68°55' E 017°07'0 0.0
2018-Jun-15 23:28N 68°55' E 017°07'0 0.0
2018-Jun-15 22:59N 68°55' E 017°07'0 0.0
2018-Jun-15 22:30N 68°55' E 017°07'0 0.0
2018-Jun-15 21:59N 68°55' E 017°07'0 0.0
2018-Jun-15 21:27N 68°55' E 017°07'0 0.0
2018-Jun-15 21:00N 68°55' E 017°07'0 0.0
2018-Jun-15 20:30N 68°55' E 017°07'0 0.0
2018-Jun-15 20:00N 68°55' E 017°07'0 0.0
2018-Jun-15 19:30N 68°55' E 017°07'0 0.0
2018-Jun-15 18:50N 68°55' E 017°07'0 0.0
2018-Jun-15 18:29N 68°55' E 017°07'0 0.0
2018-Jun-15 17:59N 68°55' E 017°07'0 0.0
2018-Jun-15 17:29N 68°55' E 017°07'0 0.0
2018-Jun-15 17:00N 68°55' E 017°07'0 0.0
2018-Jun-15 16:30N 68°55' E 017°07'0 0.0
2018-Jun-15 16:00N 68°55' E 017°07'0 0.0
2018-Jun-15 15:30N 68°55' E 017°07'0 0.0
2018-Jun-15 15:00N 68°55' E 017°07'0 0.0
2018-Jun-15 14:30N 68°55' E 017°07'0 0.0
2018-Jun-15 14:00N 68°55' E 017°07'0 0.0
2018-Jun-15 13:29N 68°55' E 017°07'0 0.0
2018-Jun-15 13:00N 68°55' E 017°07'0 0.0
2018-Jun-15 12:28N 68°55' E 017°07'0 0.0
2018-Jun-15 12:00N 68°55' E 017°07'0 0.0
2018-Jun-15 11:25N 68°55' E 017°07'0 0.0
2018-Jun-15 10:59N 68°55' E 017°07'4 6.4
2018-Jun-15 10:18N 68°51' E 017°04'2 5.5
2018-Jun-15 10:00N 68°53' E 017°02'610.3
2018-Jun-15 09:28N 68°49' E 016°51'7 1.8
2018-Jun-15 05:39N 68°54' E 017°02'2 8.2
2018-Jun-15 05:27N 68°55' E 017°06'1 1.9
2018-Jun-15 05:00N 68°55' E 017°07'0 0.0
2018-Jun-15 04:29N 68°55' E 017°07'0 0.0
2018-Jun-15 03:57N 68°55' E 017°07'0 0.0
2018-Jun-15 03:28N 68°55' E 017°07'0 0.0
2018-Jun-15 03:00N 68°55' E 017°07'0 0.0
2018-Jun-15 02:30N 68°55' E 017°07'0 0.0
2018-Jun-15 02:00N 68°55' E 017°07'0 0.0
2018-Jun-15 01:29N 68°55' E 017°07'0 0.0
2018-Jun-15 01:00N 68°55' E 017°07'0 0.0
2018-Jun-15 00:30N 68°55' E 017°07'0 0.0
2018-Jun-15 00:00N 68°55' E 017°07'0 0.0
2018-Jun-14 23:30N 68°55' E 017°07'0 0.0
2018-Jun-14 23:00N 68°55' E 017°07'0 0.0
2018-Jun-14 22:30N 68°55' E 017°07'0 0.0
2018-Jun-14 22:00N 68°55' E 017°07'0 0.0
2018-Jun-14 21:30N 68°55' E 017°07'0 0.0
2018-Jun-14 21:00N 68°55' E 017°07'0 0.0
2018-Jun-14 20:30N 68°55' E 017°07'0 0.0
2018-Jun-14 20:00N 68°55' E 017°07'0 0.0
2018-Jun-14 19:30N 68°55' E 017°07'0 0.0
2018-Jun-14 19:00N 68°55' E 017°07'0 0.0
2018-Jun-14 18:30N 68°55' E 017°07'0 0.0
2018-Jun-14 18:00N 68°55' E 017°07'0 0.0
2018-Jun-14 17:30N 68°55' E 017°07'0 0.0
2018-Jun-14 17:00N 68°55' E 017°07'0 0.0
2018-Jun-14 16:30N 68°55' E 017°07'0 0.0
2018-Jun-14 15:58N 68°55' E 017°07'0 0.0
2018-Jun-14 15:29N 68°55' E 017°07'0 0.0
2018-Jun-14 15:00N 68°55' E 017°07'0 0.0
2018-Jun-14 14:28N 68°55' E 017°07'0 0.0
2018-Jun-14 14:00N 68°55' E 017°07'12 2.4
2018-Jun-14 08:58N 68°60' E 016°36'5 1.8
2018-Jun-14 06:12N 68°59' E 016°49'5 9.2
2018-Jun-14 05:42N 68°57' E 017°01'2 9.1
2018-Jun-14 05:29N 68°56' E 017°06'1 1.6
2018-Jun-14 05:00N 68°55' E 017°07'0 0.0
2018-Jun-14 04:30N 68°55' E 017°07'0 0.0
2018-Jun-14 04:00N 68°55' E 017°07'0 0.0
2018-Jun-14 03:30N 68°55' E 017°07'0 0.0
2018-Jun-14 03:00N 68°55' E 017°07'0 0.0
2018-Jun-14 02:30N 68°55' E 017°07'0 0.0
2018-Jun-14 02:00N 68°55' E 017°07'0 0.0
2018-Jun-14 01:29N 68°55' E 017°07'0 0.0
2018-Jun-14 01:00N 68°55' E 017°07'0 0.0
2018-Jun-14 00:30N 68°55' E 017°07'0 0.0
2018-Jun-14 00:00N 68°55' E 017°07'0 0.0
2018-Jun-13 23:30N 68°55' E 017°07'0 0.0
2018-Jun-13 23:00N 68°55' E 017°07'0 0.0
2018-Jun-13 22:30N 68°55' E 017°07'0 0.0
2018-Jun-13 22:00N 68°55' E 017°07'0 0.0
2018-Jun-13 21:30N 68°55' E 017°07'0 0.0
2018-Jun-13 21:00N 68°55' E 017°07'0 0.0
2018-Jun-13 20:30N 68°55' E 017°07'0 0.0
2018-Jun-13 20:00N 68°55' E 017°07'0 0.0
2018-Jun-13 19:30N 68°55' E 017°07'0 0.0
2018-Jun-13 19:00N 68°55' E 017°07'0 0.0
2018-Jun-13 18:30N 68°55' E 017°07'0 0.0
2018-Jun-13 18:00N 68°55' E 017°07'0 0.0
2018-Jun-13 17:30N 68°55' E 017°07'3 4.2
2018-Jun-13 16:50N 68°53' E 017°05'2 1.5
2018-Jun-13 15:43N 68°51' E 017°04'0 0.0
2018-Jun-13 14:55N 68°51' E 017°04'4 0.4
2018-Jun-13 06:25N 68°55' E 017°05'3 0.2
2018-Jun-12 14:38N 68°52' E 017°03'  
2018-Jun-10 09:46N 68°56' E 017°06'1 3.7
2018-Jun-10 09:29N 68°55' E 017°09'0 0.0
2018-Jun-09 16:41N 68°55' E 017°07'  

Dump ship's entire track history